createdAt,value
2022-09-17T00:00:38.073Z,20.98
2022-09-17T00:03:09.962Z,20.88
2022-09-17T00:05:37.840Z,20.71
2022-09-17T00:08:06.347Z,20.57
2022-09-17T00:10:37.655Z,20.61
2022-09-17T00:13:05.210Z,20.70
2022-09-17T00:15:31.912Z,20.59
2022-09-17T00:17:58.610Z,20.56
2022-09-17T00:20:26.371Z,20.61
2022-09-17T00:22:54.293Z,20.57
2022-09-17T00:25:20.962Z,20.87
2022-09-17T00:27:47.723Z,20.94
2022-09-17T00:30:14.541Z,20.72
2022-09-17T00:32:41.327Z,20.83
2022-09-17T00:35:08.016Z,20.97
2022-09-17T00:37:34.693Z,20.96
2022-09-17T00:40:01.411Z,21.23
2022-09-17T00:42:28.092Z,21.10
2022-09-17T00:44:57.127Z,21.00
2022-09-17T00:47:25.504Z,21.17
2022-09-17T00:49:57.974Z,20.85
2022-09-17T00:52:30.103Z,20.73
2022-09-17T00:55:02.825Z,20.47
2022-09-17T00:57:33.447Z,20.61
2022-09-17T01:00:00.574Z,20.94
2022-09-17T01:02:27.331Z,20.97
2022-09-17T01:04:54.627Z,20.63
2022-09-17T01:07:48.687Z,20.66
2022-09-17T01:10:55.857Z,20.35
2022-09-17T01:13:54.682Z,20.63
2022-09-17T01:16:41.318Z,20.67
2022-09-17T01:19:44.817Z,20.50
2022-09-17T01:22:26.090Z,20.20
2022-09-17T01:25:11.262Z,20.62
2022-09-17T01:27:55.903Z,20.58
2022-09-17T01:31:01.071Z,20.38
2022-09-17T01:33:50.934Z,20.56
2022-09-17T01:36:34.083Z,20.74
2022-09-17T01:39:37.393Z,20.57
2022-09-17T01:42:23.960Z,20.63
2022-09-17T01:45:18.593Z,20.65
2022-09-17T01:47:52.093Z,20.32
2022-09-17T01:50:27.002Z,19.97
2022-09-17T01:52:56.775Z,20.11
2022-09-17T01:55:30.153Z,19.55
2022-09-17T01:58:03.589Z,18.96
2022-09-17T02:00:31.134Z,18.84
2022-09-17T02:03:06.846Z,19.52
2022-09-17T02:05:51.446Z,19.92
2022-09-17T02:08:18.051Z,20.02
2022-09-17T02:10:49.732Z,19.81
2022-09-17T02:13:34.217Z,19.43
2022-09-17T02:16:19.431Z,18.77
2022-09-17T02:19:09.528Z,19.31
2022-09-17T02:21:54.665Z,20.20
2022-09-17T02:24:27.043Z,20.83
2022-09-17T02:27:28.221Z,21.80
2022-09-17T02:29:54.931Z,22.43
2022-09-17T02:32:21.598Z,22.82
2022-09-17T02:34:48.303Z,23.01
2022-09-17T02:37:15.240Z,21.98
2022-09-17T02:39:42.592Z,20.47
2022-09-17T02:42:27.925Z,20.98
2022-09-17T02:45:00.424Z,19.65
2022-09-17T02:48:02.193Z,19.57
2022-09-17T02:50:31.875Z,20.17
2022-09-17T02:53:08.408Z,20.50
2022-09-17T02:56:02.825Z,19.93
2022-09-17T02:58:45.466Z,19.91
2022-09-17T03:01:24.055Z,20.28
2022-09-17T03:03:53.431Z,19.51
2022-09-17T03:06:20.609Z,19.80
2022-09-17T03:08:47.723Z,20.19
2022-09-17T03:11:15.074Z,20.22
2022-09-17T03:13:41.831Z,20.43
2022-09-17T03:16:08.659Z,20.27
2022-09-17T03:18:35.491Z,19.62
2022-09-17T03:21:02.258Z,19.68
2022-09-17T03:23:29.047Z,19.38
2022-09-17T03:25:55.903Z,19.77
2022-09-17T03:28:22.767Z,19.55
2022-09-17T03:30:49.389Z,19.60
2022-09-17T03:33:16.004Z,19.60
2022-09-17T03:35:44.134Z,20.12
2022-09-17T03:38:11.571Z,20.43
2022-09-17T03:40:38.565Z,20.57
2022-09-17T03:43:06.062Z,20.62
2022-09-17T03:45:32.768Z,20.71
2022-09-17T03:47:59.371Z,20.59
2022-09-17T03:50:26.139Z,20.85
2022-09-17T03:52:52.846Z,20.96
2022-09-17T03:55:19.419Z,20.97
2022-09-17T03:57:46.026Z,19.29
2022-09-17T04:00:15.480Z,19.99
2022-09-17T04:02:43.100Z,20.60
2022-09-17T04:05:10.303Z,20.56
2022-09-17T04:07:36.909Z,20.23
2022-09-17T04:10:05.349Z,20.62
2022-09-17T04:12:32.344Z,20.75
2022-09-17T04:14:58.985Z,20.35
2022-09-17T04:17:25.713Z,20.28
2022-09-17T04:19:53.570Z,20.65
2022-09-17T04:22:20.284Z,20.90
2022-09-17T04:24:46.861Z,20.80
2022-09-17T04:27:13.543Z,20.59
2022-09-17T04:32:43.523Z,20.75
2022-09-17T04:35:40.572Z,20.59
2022-09-17T04:38:28.852Z,20.64
2022-09-17T04:41:12.899Z,20.71
2022-09-17T04:46:45.035Z,20.39
